createdAt,value
2018-11-20T00:02:56.325Z,43.98
2018-11-20T00:08:09.842Z,43.70
2018-11-20T00:13:17.294Z,43.79
2018-11-20T00:18:26.005Z,43.64
2018-11-20T00:25:41.582Z,43.67
2018-11-20T00:30:49.045Z,44.08
2018-11-20T00:35:58.509Z,44.16
2018-11-20T00:41:07.117Z,43.68
2018-11-20T00:46:19.589Z,43.73
2018-11-20T00:51:28.193Z,43.64
2018-11-20T00:56:40.133Z,43.60
2018-11-20T01:01:53.695Z,43.55
2018-11-20T01:07:07.190Z,43.92
2018-11-20T01:13:16.734Z,43.59
2018-11-20T01:19:24.125Z,43.86
2018-11-20T01:24:32.549Z,43.51
2018-11-20T01:29:40.069Z,43.54
2018-11-20T01:34:51.568Z,43.88
2018-11-20T01:40:00.254Z,43.43
2018-11-20T01:45:09.530Z,43.64
2018-11-20T01:50:36.149Z,43.78
2018-11-20T01:55:45.615Z,43.67
2018-11-20T02:01:30.826Z,43.24
2018-11-20T02:06:39.286Z,43.43
2018-11-20T02:11:56.862Z,43.13
2018-11-20T02:17:09.078Z,43.15
2018-11-20T02:24:22.742Z,43.56
2018-11-20T02:30:29.172Z,43.41
2018-11-20T02:35:43.505Z,43.63
2018-11-20T02:40:54.834Z,43.47
2018-11-20T02:46:12.597Z,43.59
2018-11-20T02:51:23.179Z,42.98
2018-11-20T02:56:31.919Z,43.34
2018-11-20T03:01:40.535Z,43.08
2018-11-20T03:06:55.084Z,43.60
2018-11-20T03:12:03.573Z,43.00
2018-11-20T03:17:12.299Z,43.20
2018-11-20T03:22:21.018Z,43.50
2018-11-20T03:27:33.465Z,43.21
2018-11-20T03:32:42.062Z,43.08
2018-11-20T03:39:54.382Z,43.50
2018-11-20T03:47:07.731Z,43.63
2018-11-20T03:52:20.173Z,43.24
2018-11-20T03:57:27.647Z,43.49
2018-11-20T04:02:36.228Z,43.11
2018-11-20T04:07:44.925Z,43.49
2018-11-20T04:12:55.429Z,43.45
2018-11-20T04:18:04.109Z,43.31
2018-11-20T04:23:14.570Z,43.36
2018-11-20T04:28:27.057Z,43.25
2018-11-20T04:33:40.826Z,43.35
2018-11-20T04:38:50.133Z,43.45
2018-11-20T04:44:32.298Z,43.29
2018-11-20T04:49:46.707Z,43.49
2018-11-20T04:54:57.922Z,44.06
2018-11-20T05:00:06.664Z,43.77
2018-11-20T05:05:14.954Z,43.87
2018-11-20T05:10:30.548Z,43.88
2018-11-20T05:15:40.029Z,43.46
2018-11-20T05:22:55.637Z,43.40
2018-11-20T05:28:04.438Z,43.43
2018-11-20T05:33:13.882Z,43.25
2018-11-20T05:38:57.710Z,43.53
2018-11-20T05:44:06.230Z,43.71
2018-11-20T05:49:13.670Z,43.58
2018-11-20T05:54:55.867Z,43.29
2018-11-20T06:00:10.413Z,43.55
2018-11-20T06:05:51.453Z,43.56
2018-11-20T06:11:32.588Z,43.23
2018-11-20T06:16:56.318Z,43.40
2018-11-20T06:22:04.864Z,43.03
2018-11-20T06:27:19.418Z,43.45
2018-11-20T06:32:45.022Z,42.90
2018-11-20T06:37:53.670Z,43.35
2018-11-20T06:43:06.214Z,42.77
2018-11-20T06:48:13.675Z,42.99
2018-11-20T06:55:28.310Z,42.84
2018-11-20T07:00:35.742Z,42.92
2018-11-20T07:05:44.297Z,42.93
2018-11-20T07:10:52.970Z,42.54
2018-11-20T07:16:35.133Z,42.82
2018-11-20T07:21:43.534Z,42.26
2018-11-20T07:28:56.073Z,42.92
2018-11-20T07:36:08.661Z,42.79
2018-11-20T07:41:16.041Z,42.79
2018-11-20T07:47:23.313Z,42.98
2018-11-20T07:52:32.734Z,43.11
2018-11-20T07:57:41.234Z,42.73
2018-11-20T08:02:51.597Z,42.57
2018-11-20T08:08:59.099Z,42.23
2018-11-20T08:14:09.610Z,42.04
2018-11-20T08:19:18.167Z,41.93
2018-11-20T08:24:28.649Z,42.27
2018-11-20T08:29:37.356Z,42.16
2018-11-20T08:34:44.802Z,42.28
2018-11-20T08:42:00.256Z,42.37
2018-11-20T08:47:08.709Z,42.28
2018-11-20T08:52:17.127Z,41.65
2018-11-20T08:57:25.666Z,41.61
2018-11-20T09:02:49.446Z,41.51
2018-11-20T09:07:56.778Z,41.49
2018-11-20T09:13:04.238Z,41.32
2018-11-20T09:18:13.585Z,41.78
2018-11-20T09:23:22.003Z,41.22
2018-11-20T09:28:32.330Z,41.33
2018-11-20T09:33:41.643Z,41.35
2018-11-20T09:38:50.367Z,40.99
2018-11-20T09:44:04.606Z,40.72
2018-11-20T09:49:21.230Z,41.32
2018-11-20T09:56:38.625Z,41.67
2018-11-20T10:01:46.904Z,41.51
2018-11-20T10:06:55.518Z,41.95
2018-11-20T10:12:06.986Z,42.14
2018-11-20T10:17:20.562Z,42.34
2018-11-20T10:22:29.106Z,42.55
2018-11-20T10:28:36.598Z,42.29
2018-11-20T10:34:49.032Z,42.17
2018-11-20T10:42:00.138Z,42.28
2018-11-20T10:48:07.412Z,36.01
2018-11-20T10:53:16.126Z,29.06
2018-11-20T10:58:24.845Z,29.66
2018-11-20T11:03:33.498Z,31.26
2018-11-20T11:08:42.118Z,33.26
2018-11-20T11:13:50.806Z,34.08
2018-11-20T11:18:59.555Z,34.86
2018-11-20T11:24:09.996Z,35.93
2018-11-20T11:29:18.860Z,37.16
2018-11-20T11:34:26.527Z,36.84
2018-11-20T11:39:34.987Z,38.07
2018-11-20T11:45:19.041Z,39.22
2018-11-20T11:50:27.623Z,39.07
2018-11-20T11:55:41.070Z,39.41
2018-11-20T12:00:53.640Z,40.07
2018-11-20T14:32:38.385Z,41.46
2018-11-20T14:38:03.302Z,41.55
2018-11-20T14:43:31.579Z,41.70
2018-11-20T14:48:53.978Z,42.01
2018-11-20T14:54:13.240Z,42.22
2018-11-20T14:59:24.744Z,42.52
2018-11-20T15:04:47.140Z,42.63
2018-11-20T15:10:01.575Z,42.89
2018-11-20T15:15:46.229Z,43.24
2018-11-20T15:21:07.189Z,43.23
2018-11-20T15:26:28.156Z,43.32
2018-11-20T15:31:52.014Z,43.42
2018-11-20T15:37:13.220Z,43.53
2018-11-20T15:42:24.218Z,43.82
2018-11-20T15:47:49.598Z,43.82
2018-11-20T15:53:14.669Z,43.96
2018-11-20T15:58:39.937Z,44.01
2018-11-20T16:04:01.176Z,44.25
2018-11-20T16:09:28.549Z,44.30
2018-11-20T16:14:49.744Z,44.50
2018-11-20T16:20:12.138Z,44.50
2018-11-20T16:25:40.582Z,44.39
2018-11-20T16:31:06.937Z,44.50
2018-11-20T16:36:26.025Z,44.65
2018-11-20T16:41:57.573Z,44.81
2018-11-20T16:47:25.843Z,45.03
2018-11-20T16:52:51.953Z,44.85
2018-11-20T16:58:27.399Z,44.83
2018-11-20T17:03:47.612Z,44.89
2018-11-20T17:09:20.830Z,44.83
2018-11-20T17:14:47.133Z,45.19
2018-11-20T17:20:12.202Z,45.31
2018-11-20T17:25:33.328Z,45.12
2018-11-20T17:31:01.616Z,45.10
2018-11-20T17:36:22.845Z,45.12
2018-11-20T17:41:43.984Z,45.07
2018-11-20T17:46:58.241Z,45.08
2018-11-20T17:52:25.544Z,45.24
2018-11-20T17:57:46.802Z,45.20
2018-11-20T18:03:18.200Z,45.11
2018-11-20T18:08:39.016Z,45.20
2018-11-20T18:13:52.383Z,45.16
2018-11-20T18:19:13.555Z,45.34
2018-11-20T18:24:23.989Z,45.38
2018-11-20T18:29:55.609Z,45.75
2018-11-20T18:35:16.688Z,45.70
2018-11-20T18:40:43.460Z,45.54
2018-11-20T18:46:11.594Z,45.63
2018-11-20T18:51:42.886Z,45.49
2018-11-20T18:57:00.255Z,45.49
2018-11-20T19:02:21.507Z,45.63
2018-11-20T19:07:42.508Z,45.59
2018-11-20T19:13:08.985Z,45.69
2018-11-20T19:18:31.405Z,45.80
2018-11-20T19:23:52.731Z,45.99
2018-11-20T19:29:18.282Z,45.85
2018-11-20T19:34:39.593Z,45.74
2018-11-20T19:40:14.261Z,45.70
2018-11-20T19:45:48.809Z,45.70
2018-11-20T19:51:11.549Z,45.54
2018-11-20T19:56:36.698Z,45.49
2018-11-20T20:01:59.129Z,45.50
2018-11-20T20:07:20.693Z,45.57
2018-11-20T20:12:42.191Z,45.51
2018-11-20T20:18:13.205Z,45.33
2018-11-20T20:23:38.601Z,45.20
2018-11-20T20:29:12.071Z,45.01
2018-11-20T20:34:33.065Z,44.90
2018-11-20T20:39:50.611Z,44.78
2018-11-20T20:45:11.709Z,44.78
2018-11-20T20:50:32.284Z,44.78
2018-11-20T20:55:54.718Z,44.60
2018-11-20T21:01:16.073Z,44.76
2018-11-20T21:06:33.806Z,44.75
2018-11-20T21:11:56.346Z,44.60
2018-11-20T21:17:31.134Z,44.69
2018-11-20T21:23:06.109Z,44.76
2018-11-20T21:28:43.725Z,44.80
2018-11-20T21:33:57.478Z,44.87
2018-11-20T21:39:18.771Z,44.76
2018-11-20T21:44:47.676Z,44.76
2018-11-20T21:50:06.694Z,44.81
2018-11-20T21:55:20.116Z,44.83
2018-11-20T22:00:56.030Z,44.93
2018-11-20T22:06:15.884Z,44.98
2018-11-20T22:11:36.933Z,44.70
2018-11-20T22:16:59.350Z,44.70
2018-11-20T22:22:31.053Z,44.74
2018-11-20T22:27:52.672Z,44.81
2018-11-20T22:33:17.995Z,44.84
2018-11-20T22:38:35.454Z,44.82
2018-11-20T22:44:00.841Z,44.85
2018-11-20T22:49:41.534Z,45.02
2018-11-20T22:55:19.354Z,44.82
2018-11-20T23:00:40.910Z,44.90
2018-11-20T23:05:59.412Z,44.90
2018-11-20T23:11:02.733Z,44.92
2018-11-20T23:16:06.458Z,45.03
2018-11-20T23:21:09.773Z,44.96
2018-11-20T23:26:13.189Z,44.90
2018-11-20T23:31:16.477Z,45.02
2018-11-20T23:36:19.760Z,45.06
2018-11-20T23:41:23.050Z,45.05
2018-11-20T23:46:26.335Z,44.92
2018-11-20T23:51:29.811Z,44.89
2018-11-20T23:56:33.115Z,44.96
